Priwall — V2OX8 — position and weather

sailwx.info

Track history (hours):
 
Tides and Currents Weather Stations Pressure Air Temp Water Temp Dewpoint Dewpoint Depression Visibility Wind Speed Wind Dir Waves Ship Positions

Priwall

Last reported at 2014-Jul-20 17:18 UTC. Time now 2014-Jul-25 03:47 UTC.
Position N 38°17' W 009°44'.

Length 88 m; draft 5.3 m.

Type: Cargo ship. MMSI: 304739000.

Date/timePositionNaut miles runAvg speedWind from/ knotsBaromVisibWave heightAir tempDewpointWater temp
2014-Jul-20 17:18N 38°17' W 009°44'7 9.5
2014-Jul-20 16:33N 38°10' W 009°42'9 9.0
2014-Jul-20 15:32N 38°01' W 009°39'9 8.9
2014-Jul-20 14:33N 37°52' W 009°37'9 8.4
2014-Jul-20 13:31N 37°44' W 009°34'8 8.4
2014-Jul-20 12:32N 37°36' W 009°32'10 8.7
2014-Jul-20 11:23N 37°26' W 009°29'51 8.4
2014-Jul-20 05:18N 36°42' W 008°58'7 8.8
2014-Jul-20 04:30N 36°40' W 008°49'8 8.5
2014-Jul-20 03:33N 36°38' W 008°40'19 9.2
2014-Jul-20 01:30N 36°31' W 008°18'  
2014-Jul-17 12:33N 37°11' E 000°57'8 7.6
2014-Jul-17 11:29N 37°13' E 001°07'9 7.8
2014-Jul-17 10:19N 37°16' E 001°18'15 8.3
2014-Jul-17 08:33N 37°20' E 001°36'16 8.0
2014-Jul-17 06:33N 37°25' E 001°55'12 8.0
2014-Jul-17 05:04N 37°28' E 002°09'13 8.4
2014-Jul-17 03:31N 37°32' E 002°25'10 8.1
2014-Jul-17 02:15N 37°35' E 002°37'32 7.8
2014-Jul-16 22:12N 37°44' E 003°15'5 7.9
2014-Jul-16 21:33N 37°46' E 003°22'8 7.8
2014-Jul-16 20:32N 37°48' E 003°31'  
Track history (hours):
 
Tides and Currents Weather Stations Pressure Air Temp Water Temp Dewpoint Dewpoint Depression Visibility Wind Speed Wind Dir Waves Ship Positions

Priwall

Last reported at 2014-Jul-20 17:18 UTC. Time now 2014-Jul-25 03:47 UTC.
Position N 38°17' W 009°44'.

Length 88 m; draft 5.3 m.

Type: Cargo ship. MMSI: 304739000.

Date/timePositionNaut miles runAvg speedWind from/ knotsBaromVisibWave heightAir tempDewpointWater temp
2014-Jul-20 17:18N 38°17' W 009°44'7 9.5
2014-Jul-20 16:33N 38°10' W 009°42'9 9.0
2014-Jul-20 15:32N 38°01' W 009°39'9 8.9
2014-Jul-20 14:33N 37°52' W 009°37'9 8.4
2014-Jul-20 13:31N 37°44' W 009°34'8 8.4
2014-Jul-20 12:32N 37°36' W 009°32'10 8.7
2014-Jul-20 11:23N 37°26' W 009°29'51 8.4
2014-Jul-20 05:18N 36°42' W 008°58'7 8.8
2014-Jul-20 04:30N 36°40' W 008°49'8 8.5
2014-Jul-20 03:33N 36°38' W 008°40'19 9.2
2014-Jul-20 01:30N 36°31' W 008°18'  
2014-Jul-17 12:33N 37°11' E 000°57'8 7.6
2014-Jul-17 11:29N 37°13' E 001°07'9 7.8
2014-Jul-17 10:19N 37°16' E 001°18'15 8.3
2014-Jul-17 08:33N 37°20' E 001°36'16 8.0
2014-Jul-17 06:33N 37°25' E 001°55'12 8.0
2014-Jul-17 05:04N 37°28' E 002°09'13 8.4
2014-Jul-17 03:31N 37°32' E 002°25'10 8.1
2014-Jul-17 02:15N 37°35' E 002°37'32 7.8
2014-Jul-16 22:12N 37°44' E 003°15'5 7.9
2014-Jul-16 21:33N 37°46' E 003°22'8 7.8
2014-Jul-16 20:32N 37°48' E 003°31'  

Dump ship's entire track history